KSEP/SEP METAR and TAF weather

Enter ICAO airport designator
Station Type Date Time Source
KSEP METAR 2020/01/27 13:55 UTC NOAA

KSEP 271355Z AUTO 00000KT M1/4SM OVC001 04/03 A3004 RMK AO2 T00360030


Station Type Date Time Source
KSEP Decoded METAR 2020/01/27 13:55 UTC NOAA

Stephenville, Clark Field Municipal Airport, TX, United States (KSEP) 32-13N 098-11W 402M
Jan 27, 2020 - 08:55 AM EST / 2020.01.27 1355 UTC
Wind: Calm:0
Visibility: less than 1/4 mile(s):1
Sky conditions: overcast
Temperature: 38.5 F (3.6 C)
Dew Point: 37.4 F (3.0 C)
Relative Humidity: 95%
Pressure (altimeter): 30.04 in. Hg (1017 hPa)
ob: KSEP 271355Z AUTO 00000KT M1/4SM OVC001 04/03 A3004 RMK AO2 T00360030
cycle: 14

Station Type Date Time Source
KSEP TAF UTC NOAA

Error!

Example: see airport list